sensor_id;sensor_type;location;lat;lon;timestamp;temperature;humidity
6256;DHT22;3161;48.794;9.784;2023-04-03T00:00:57;5.50;99.90
6256;DHT22;3161;48.794;9.784;2023-04-03T00:03:25;5.60;99.90
6256;DHT22;3161;48.794;9.784;2023-04-03T00:05:53;5.60;99.90
6256;DHT22;3161;48.794;9.784;2023-04-03T00:08:21;5.60;99.90
6256;DHT22;3161;48.794;9.784;2023-04-03T00:10:49;5.60;99.90
6256;DHT22;3161;48.794;9.784;2023-04-03T00:13:16;5.50;99.90
6256;DHT22;3161;48.794;9.784;2023-04-03T00:15:44;5.50;99.90
6256;DHT22;3161;48.794;9.784;2023-04-03T00:18:12;5.50;99.90
6256;DHT22;3161;48.794;9.784;2023-04-03T00:20:40;5.60;99.90
6256;DHT22;3161;48.794;9.784;2023-04-03T00:23:07;5.60;99.90
6256;DHT22;3161;48.794;9.784;2023-04-03T00:25:35;5.60;99.90
6256;DHT22;3161;48.794;9.784;2023-04-03T00:28:03;5.60;99.90
6256;DHT22;3161;48.794;9.784;2023-04-03T00:30:31;5.60;99.90
6256;DHT22;3161;48.794;9.784;2023-04-03T00:32:59;5.60;99.90
6256;DHT22;3161;48.794;9.784;2023-04-03T00:35:27;5.60;99.90
6256;DHT22;3161;48.794;9.784;2023-04-03T00:37:55;5.60;99.90
6256;DHT22;3161;48.794;9.784;2023-04-03T00:40:26;5.60;99.90
6256;DHT22;3161;48.794;9.784;2023-04-03T00:42:58;5.60;99.90
6256;DHT22;3161;48.794;9.784;2023-04-03T00:45:38;5.60;99.90
6256;DHT22;3161;48.794;9.784;2023-04-03T00:48:10;5.50;99.90
6256;DHT22;3161;48.794;9.784;2023-04-03T00:50:39;5.50;99.90
6256;DHT22;3161;48.794;9.784;2023-04-03T00:53:11;5.50;99.90
6256;DHT22;3161;48.794;9.784;2023-04-03T00:55:38;5.50;99.90
6256;DHT22;3161;48.794;9.784;2023-04-03T00:58:07;5.50;99.90
6256;DHT22;3161;48.794;9.784;2023-04-03T01:00:37;5.50;99.90
6256;DHT22;3161;48.794;9.784;2023-04-03T01:03:06;5.40;99.90
6256;DHT22;3161;48.794;9.784;2023-04-03T01:05:34;5.40;99.90
6256;DHT22;3161;48.794;9.784;2023-04-03T01:08:03;5.40;99.90
6256;DHT22;3161;48.794;9.784;2023-04-03T01:10:31;5.40;99.90
6256;DHT22;3161;48.794;9.784;2023-04-03T01:13:00;5.30;99.90
6256;DHT22;3161;48.794;9.784;2023-04-03T01:15:28;5.30;99.90
6256;DHT22;3161;48.794;9.784;2023-04-03T01:17:58;5.30;99.90
6256;DHT22;3161;48.794;9.784;2023-04-03T01:25:54;5.30;99.90
6256;DHT22;3161;48.794;9.784;2023-04-03T01:33:38;5.30;99.90
6256;DHT22;3161;48.794;9.784;2023-04-03T01:36:06;5.30;99.90
6256;DHT22;3161;48.794;9.784;2023-04-03T01:38:34;5.30;99.90
6256;DHT22;3161;48.794;9.784;2023-04-03T01:41:02;5.30;99.90
6256;DHT22;3161;48.794;9.784;2023-04-03T01:43:29;5.30;99.90
6256;DHT22;3161;48.794;9.784;2023-04-03T01:45:57;5.30;99.90
6256;DHT22;3161;48.794;9.784;2023-04-03T01:48:24;5.40;99.90
6256;DHT22;3161;48.794;9.784;2023-04-03T01:50:52;5.40;99.90
6256;DHT22;3161;48.794;9.784;2023-04-03T01:53:19;5.40;99.90
6256;DHT22;3161;48.794;9.784;2023-04-03T01:55:48;5.40;99.90
6256;DHT22;3161;48.794;9.784;2023-04-03T01:58:15;5.40;99.90
6256;DHT22;3161;48.794;9.784;2023-04-03T02:00:43;5.40;99.90
6256;DHT22;3161;48.794;9.784;2023-04-03T02:03:10;5.40;99.90
6256;DHT22;3161;48.794;9.784;2023-04-03T02:05:38;5.40;99.90
6256;DHT22;3161;48.794;9.784;2023-04-03T02:08:05;5.50;99.90
6256;DHT22;3161;48.794;9.784;2023-04-03T02:10:33;5.50;99.90
6256;DHT22;3161;48.794;9.784;2023-04-03T02:13:01;5.50;99.90
6256;DHT22;3161;48.794;9.784;2023-04-03T02:15:28;5.50;99.90
6256;DHT22;3161;48.794;9.784;2023-04-03T02:17:56;5.50;99.90
6256;DHT22;3161;48.794;9.784;2023-04-03T02:20:24;5.50;99.90
6256;DHT22;3161;48.794;9.784;2023-04-03T02:22:51;5.40;99.90
6256;DHT22;3161;48.794;9.784;2023-04-03T02:25:18;4.80;99.90
6256;DHT22;3161;48.794;9.784;2023-04-03T02:27:46;5.40;99.90
6256;DHT22;3161;48.794;9.784;2023-04-03T02:30:14;5.40;99.90
6256;DHT22;3161;48.794;9.784;2023-04-03T02:32:42;5.40;99.90
6256;DHT22;3161;48.794;9.784;2023-04-03T02:35:10;5.40;99.90
6256;DHT22;3161;48.794;9.784;2023-04-03T02:37:38;5.50;99.90
6256;DHT22;3161;48.794;9.784;2023-04-03T02:40:07;5.50;99.90
6256;DHT22;3161;48.794;9.784;2023-04-03T02:42:35;5.50;99.90
6256;DHT22;3161;48.794;9.784;2023-04-03T02:45:02;5.50;99.90
6256;DHT22;3161;48.794;9.784;2023-04-03T02:47:30;5.40;99.90
6256;DHT22;3161;48.794;9.784;2023-04-03T02:49:57;5.40;99.90
6256;DHT22;3161;48.794;9.784;2023-04-03T02:52:25;5.40;99.90
6256;DHT22;3161;48.794;9.784;2023-04-03T02:54:52;5.40;99.90
6256;DHT22;3161;48.794;9.784;2023-04-03T02:57:20;5.40;99.90
6256;DHT22;3161;48.794;9.784;2023-04-03T02:59:48;5.40;99.90
6256;DHT22;3161;48.794;9.784;2023-04-03T03:02:15;5.40;99.90
6256;DHT22;3161;48.794;9.784;2023-04-03T03:04:42;5.40;99.90
6256;DHT22;3161;48.794;9.784;2023-04-03T03:07:10;5.40;99.90
6256;DHT22;3161;48.794;9.784;2023-04-03T03:09:38;5.40;99.90
6256;DHT22;3161;48.794;9.784;2023-04-03T03:12:05;5.40;99.90
6256;DHT22;3161;48.794;9.784;2023-04-03T03:14:33;5.40;99.90
6256;DHT22;3161;48.794;9.784;2023-04-03T03:17:00;5.40;99.90
6256;DHT22;3161;48.794;9.784;2023-04-03T03:19:28;5.40;99.90
6256;DHT22;3161;48.794;9.784;2023-04-03T03:21:55;5.40;99.90
6256;DHT22;3161;48.794;9.784;2023-04-03T03:24:23;5.40;99.90
6256;DHT22;3161;48.794;9.784;2023-04-03T03:26:51;5.40;99.90
6256;DHT22;3161;48.794;9.784;2023-04-03T03:29:18;5.40;99.90
6256;DHT22;3161;48.794;9.784;2023-04-03T03:31:46;5.40;99.90
6256;DHT22;3161;48.794;9.784;2023-04-03T03:34:13;5.40;99.90
6256;DHT22;3161;48.794;9.784;2023-04-03T03:36:41;5.30;99.90
6256;DHT22;3161;48.794;9.784;2023-04-03T03:39:09;5.30;99.90
6256;DHT22;3161;48.794;9.784;2023-04-03T03:41:37;5.30;99.90
6256;DHT22;3161;48.794;9.784;2023-04-03T03:44:04;5.30;99.90
6256;DHT22;3161;48.794;9.784;2023-04-03T03:46:32;5.30;99.90
6256;DHT22;3161;48.794;9.784;2023-04-03T03:48:59;5.40;99.90
6256;DHT22;3161;48.794;9.784;2023-04-03T03:51:27;5.40;99.90
6256;DHT22;3161;48.794;9.784;2023-04-03T03:53:54;5.30;99.90
6256;DHT22;3161;48.794;9.784;2023-04-03T03:56:22;5.30;99.90
6256;DHT22;3161;48.794;9.784;2023-04-03T03:58:49;5.30;99.90
6256;DHT22;3161;48.794;9.784;2023-04-03T04:01:17;5.40;99.90
6256;DHT22;3161;48.794;9.784;2023-04-03T04:03:44;5.30;99.90
6256;DHT22;3161;48.794;9.784;2023-04-03T04:06:12;5.30;99.90
6256;DHT22;3161;48.794;9.784;2023-04-03T04:08:39;5.30;99.90
6256;DHT22;3161;48.794;9.784;2023-04-03T04:11:08;5.30;99.90
6256;DHT22;3161;48.794;9.784;2023-04-03T04:13:36;5.30;99.90
6256;DHT22;3161;48.794;9.784;2023-04-03T04:16:03;5.30;99.90
6256;DHT22;3161;48.794;9.784;2023-04-03T04:18:31;5.30;99.90
6256;DHT22;3161;48.794;9.784;2023-04-03T04:20:59;5.30;99.90
6256;DHT22;3161;48.794;9.784;2023-04-03T04:23:27;5.30;99.90
6256;DHT22;3161;48.794;9.784;2023-04-03T04:25:54;5.30;99.90
6256;DHT22;3161;48.794;9.784;2023-04-03T04:28:22;5.20;99.90
6256;DHT22;3161;48.794;9.784;2023-04-03T04:30:49;5.20;99.90
6256;DHT22;3161;48.794;9.784;2023-04-03T04:33:17;5.20;99.90
6256;DHT22;3161;48.794;9.784;2023-04-03T04:35:46;5.20;99.90
6256;DHT22;3161;48.794;9.784;2023-04-03T04:38:14;5.10;99.90
6256;DHT22;3161;48.794;9.784;2023-04-03T04:40:41;5.10;99.90
6256;DHT22;3161;48.794;9.784;2023-04-03T04:43:09;5.10;99.90
6256;DHT22;3161;48.794;9.784;2023-04-03T04:45:38;5.10;99.90
6256;DHT22;3161;48.794;9.784;2023-04-03T04:48:05;5.00;99.90
6256;DHT22;3161;48.794;9.784;2023-04-03T04:50:33;5.00;99.90
6256;DHT22;3161;48.794;9.784;2023-04-03T04:53:00;5.00;99.90
6256;DHT22;3161;48.794;9.784;2023-04-03T04:55:28;4.90;99.90
6256;DHT22;3161;48.794;9.784;2023-04-03T04:57:55;4.90;99.90
6256;DHT22;3161;48.794;9.784;2023-04-03T05:00:23;4.80;99.90
6256;DHT22;3161;48.794;9.784;2023-04-03T05:02:51;4.70;99.90
6256;DHT22;3161;48.794;9.784;2023-04-03T05:05:18;4.70;99.90
6256;DHT22;3161;48.794;9.784;2023-04-03T05:07:46;4.60;99.90
6256;DHT22;3161;48.794;9.784;2023-04-03T05:10:13;4.50;99.90
6256;DHT22;3161;48.794;9.784;2023-04-03T05:12:41;4.50;99.90
6256;DHT22;3161;48.794;9.784;2023-04-03T05:15:09;4.50;99.90
6256;DHT22;3161;48.794;9.784;2023-04-03T05:17:37;4.40;99.90
6256;DHT22;3161;48.794;9.784;2023-04-03T05:20:05;4.40;99.90
6256;DHT22;3161;48.794;9.784;2023-04-03T05:22:33;4.30;99.90
6256;DHT22;3161;48.794;9.784;2023-04-03T05:25:01;4.30;99.90
6256;DHT22;3161;48.794;9.784;2023-04-03T05:27:28;4.30;99.90
6256;DHT22;3161;48.794;9.784;2023-04-03T05:29:56;4.30;99.90
6256;DHT22;3161;48.794;9.784;2023-04-03T05:32:24;4.30;99.90
6256;DHT22;3161;48.794;9.784;2023-04-03T05:34:54;4.30;99.90
6256;DHT22;3161;48.794;9.784;2023-04-03T05:37:21;4.40;99.90
6256;DHT22;3161;48.794;9.784;2023-04-03T05:39:49;4.30;99.90
6256;DHT22;3161;48.794;9.784;2023-04-03T05:42:17;4.30;99.90
6256;DHT22;3161;48.794;9.784;2023-04-03T05:44:44;4.40;99.90
6256;DHT22;3161;48.794;9.784;2023-04-03T05:47:13;4.40;99.90
6256;DHT22;3161;48.794;9.784;2023-04-03T05:49:41;4.40;99.90
6256;DHT22;3161;48.794;9.784;2023-04-03T05:52:25;4.40;99.90
6256;DHT22;3161;48.794;9.784;2023-04-03T05:54:49;4.50;99.90
6256;DHT22;3161;48.794;9.784;2023-04-03T05:57:17;4.50;99.90
6256;DHT22;3161;48.794;9.784;2023-04-03T05:59:46;4.60;99.90
6256;DHT22;3161;48.794;9.784;2023-04-03T06:02:16;4.60;99.90
6256;DHT22;3161;48.794;9.784;2023-04-03T06:04:44;4.70;99.90
6256;DHT22;3161;48.794;9.784;2023-04-03T06:07:15;4.70;99.90
6256;DHT22;3161;48.794;9.784;2023-04-03T06:09:43;4.80;99.90
6256;DHT22;3161;48.794;9.784;2023-04-03T06:12:10;4.80;99.90
6256;DHT22;3161;48.794;9.784;2023-04-03T06:14:38;4.90;99.90
6256;DHT22;3161;48.794;9.784;2023-04-03T06:17:05;4.90;99.90
6256;DHT22;3161;48.794;9.784;2023-04-03T06:19:33;4.90;99.90
6256;DHT22;3161;48.794;9.784;2023-04-03T06:22:01;5.00;99.90
6256;DHT22;3161;48.794;9.784;2023-04-03T06:24:29;4.70;99.90
6256;DHT22;3161;48.794;9.784;2023-04-03T06:26:57;5.10;99.90
6256;DHT22;3161;48.794;9.784;2023-04-03T06:29:25;5.10;99.90
6256;DHT22;3161;48.794;9.784;2023-04-03T06:31:53;5.20;99.90
6256;DHT22;3161;48.794;9.784;2023-04-03T06:34:20;5.30;99.90
6256;DHT22;3161;48.794;9.784;2023-04-03T06:36:48;5.30;99.90
6256;DHT22;3161;48.794;9.784;2023-04-03T06:39:19;5.40;99.90
6256;DHT22;3161;48.794;9.784;2023-04-03T06:41:48;5.40;99.90
6256;DHT22;3161;48.794;9.784;2023-04-03T06:44:15;5.50;99.90
6256;DHT22;3161;48.794;9.784;2023-04-03T06:46:44;5.50;99.90
6256;DHT22;3161;48.794;9.784;2023-04-03T06:49:13;5.50;99.90
6256;DHT22;3161;48.794;9.784;2023-04-03T06:51:41;5.60;99.90
6256;DHT22;3161;48.794;9.784;2023-04-03T06:54:09;5.60;99.90
6256;DHT22;3161;48.794;9.784;2023-04-03T06:56:36;5.50;99.90
6256;DHT22;3161;48.794;9.784;2023-04-03T06:59:04;5.60;99.90
6256;DHT22;3161;48.794;9.784;2023-04-03T07:01:31;5.70;99.90
6256;DHT22;3161;48.794;9.784;2023-04-03T07:03:59;5.70;99.90
6256;DHT22;3161;48.794;9.784;2023-04-03T07:06:27;5.70;99.90
6256;DHT22;3161;48.794;9.784;2023-04-03T07:08:55;5.80;99.90
6256;DHT22;3161;48.794;9.784;2023-04-03T07:11:23;5.80;99.90
6256;DHT22;3161;48.794;9.784;2023-04-03T07:13:50;5.80;99.90
6256;DHT22;3161;48.794;9.784;2023-04-03T07:16:18;5.90;99.90
6256;DHT22;3161;48.794;9.784;2023-04-03T07:18:47;6.00;99.90
6256;DHT22;3161;48.794;9.784;2023-04-03T07:21:14;6.10;99.90
6256;DHT22;3161;48.794;9.784;2023-04-03T07:23:42;6.10;99.90
6256;DHT22;3161;48.794;9.784;2023-04-03T07:26:09;6.10;99.90
6256;DHT22;3161;48.794;9.784;2023-04-03T07:28:37;6.10;99.90
6256;DHT22;3161;48.794;9.784;2023-04-03T07:31:08;6.20;99.90
6256;DHT22;3161;48.794;9.784;2023-04-03T07:33:37;6.10;99.90
6256;DHT22;3161;48.794;9.784;2023-04-03T07:36:07;6.10;99.90
6256;DHT22;3161;48.794;9.784;2023-04-03T07:38:35;6.20;99.90
6256;DHT22;3161;48.794;9.784;2023-04-03T07:41:03;6.20;99.90
6256;DHT22;3161;48.794;9.784;2023-04-03T07:43:32;6.10;99.90
6256;DHT22;3161;48.794;9.784;2023-04-03T07:46:01;6.30;99.90
6256;DHT22;3161;48.794;9.784;2023-04-03T07:48:28;6.40;99.90
6256;DHT22;3161;48.794;9.784;2023-04-03T07:51:01;6.40;99.90
6256;DHT22;3161;48.794;9.784;2023-04-03T07:53:29;6.30;99.90
6256;DHT22;3161;48.794;9.784;2023-04-03T07:55:58;6.40;99.90
6256;DHT22;3161;48.794;9.784;2023-04-03T07:58:26;6.50;99.90
6256;DHT22;3161;48.794;9.784;2023-04-03T08:00:53;6.60;99.90
6256;DHT22;3161;48.794;9.784;2023-04-03T08:03:21;6.70;99.90
6256;DHT22;3161;48.794;9.784;2023-04-03T08:05:49;6.70;99.90
6256;DHT22;3161;48.794;9.784;2023-04-03T08:08:22;6.70;99.90
6256;DHT22;3161;48.794;9.784;2023-04-03T08:10:53;6.90;99.90
6256;DHT22;3161;48.794;9.784;2023-04-03T08:13:21;6.90;99.90
6256;DHT22;3161;48.794;9.784;2023-04-03T08:15:50;7.00;99.90
6256;DHT22;3161;48.794;9.784;2023-04-03T08:18:17;7.00;99.90
6256;DHT22;3161;48.794;9.784;2023-04-03T08:20:47;7.00;99.90
6256;DHT22;3161;48.794;9.784;2023-04-03T08:23:15;7.10;99.90
6256;DHT22;3161;48.794;9.784;2023-04-03T08:25:44;7.10;99.90
6256;DHT22;3161;48.794;9.784;2023-04-03T08:28:12;7.20;99.90
6256;DHT22;3161;48.794;9.784;2023-04-03T08:30:41;7.30;99.90
6256;DHT22;3161;48.794;9.784;2023-04-03T08:33:09;7.40;99.90
6256;DHT22;3161;48.794;9.784;2023-04-03T08:35:41;7.40;99.90
6256;DHT22;3161;48.794;9.784;2023-04-03T08:38:09;7.50;99.90
6256;DHT22;3161;48.794;9.784;2023-04-03T08:40:38;7.50;99.90
6256;DHT22;3161;48.794;9.784;2023-04-03T08:43:33;7.70;99.90
6256;DHT22;3161;48.794;9.784;2023-04-03T08:46:01;7.90;99.90
6256;DHT22;3161;48.794;9.784;2023-04-03T08:48:34;8.10;99.90
6256;DHT22;3161;48.794;9.784;2023-04-03T08:51:04;8.10;99.90
6256;DHT22;3161;48.794;9.784;2023-04-03T08:53:35;8.10;99.90
6256;DHT22;3161;48.794;9.784;2023-04-03T08:56:06;8.20;99.90
6256;DHT22;3161;48.794;9.784;2023-04-03T09:01:39;8.40;99.90
6256;DHT22;3161;48.794;9.784;2023-04-03T09:04:14;8.60;99.90
6256;DHT22;3161;48.794;9.784;2023-04-03T09:06:50;8.70;99.90
6256;DHT22;3161;48.794;9.784;2023-04-03T09:09:30;8.80;99.90
6256;DHT22;3161;48.794;9.784;2023-04-03T09:12:06;8.80;99.90
6256;DHT22;3161;48.794;9.784;2023-04-03T09:14:58;8.70;99.90
6256;DHT22;3161;48.794;9.784;2023-04-03T09:25:53;8.40;99.90
6256;DHT22;3161;48.794;9.784;2023-04-03T09:28:21;8.30;99.90
6256;DHT22;3161;48.794;9.784;2023-04-03T09:30:49;8.20;99.90
6256;DHT22;3161;48.794;9.784;2023-04-03T09:33:17;8.20;99.90
6256;DHT22;3161;48.794;9.784;2023-04-03T09:35:45;8.20;99.90
6256;DHT22;3161;48.794;9.784;2023-04-03T09:38:15;8.20;99.90
6256;DHT22;3161;48.794;9.784;2023-04-03T09:40:49;8.10;99.90
6256;DHT22;3161;48.794;9.784;2023-04-03T09:45:56;8.00;99.90
6256;DHT22;3161;48.794;9.784;2023-04-03T09:48:25;7.90;99.90
6256;DHT22;3161;48.794;9.784;2023-04-03T09:50:57;7.80;99.90
6256;DHT22;3161;48.794;9.784;2023-04-03T09:53:40;7.70;99.90
6256;DHT22;3161;48.794;9.784;2023-04-03T10:01:30;7.80;99.90
6256;DHT22;3161;48.794;9.784;2023-04-03T10:04:10;7.80;99.90
6256;DHT22;3161;48.794;9.784;2023-04-03T10:06:46;7.90;99.90
6256;DHT22;3161;48.794;9.784;2023-04-03T10:09:31;7.90;99.90
6256;DHT22;3161;48.794;9.784;2023-04-03T10:12:04;8.00;99.90
6256;DHT22;3161;48.794;9.784;2023-04-03T10:14:35;8.10;99.90
6256;DHT22;3161;48.794;9.784;2023-04-03T10:19:45;8.10;99.90
6256;DHT22;3161;48.794;9.784;2023-04-03T10:22:20;8.10;99.90
6256;DHT22;3161;48.794;9.784;2023-04-03T10:28:10;8.20;99.90
6256;DHT22;3161;48.794;9.784;2023-04-03T10:31:13;8.20;99.90
6256;DHT22;3161;48.794;9.784;2023-04-03T10:44:42;7.80;99.90
6256;DHT22;3161;48.794;9.784;2023-04-03T10:49:58;7.80;99.90
6256;DHT22;3161;48.794;9.784;2023-04-03T10:52:40;7.80;99.90
6256;DHT22;3161;48.794;9.784;2023-04-03T10:55:24;7.80;99.90
6256;DHT22;3161;48.794;9.784;2023-04-03T10:57:51;7.80;99.90
6256;DHT22;3161;48.794;9.784;2023-04-03T11:03:03;8.00;99.20
6256;DHT22;3161;48.794;9.784;2023-04-03T11:05:39;8.00;99.20
6256;DHT22;3161;48.794;9.784;2023-04-03T11:08:12;8.00;99.50
6256;DHT22;3161;48.794;9.784;2023-04-03T11:10:48;8.00;98.60
6256;DHT22;3161;48.794;9.784;2023-04-03T11:13:22;8.10;99.30
6256;DHT22;3161;48.794;9.784;2023-04-03T11:15:53;8.30;99.20
6256;DHT22;3161;48.794;9.784;2023-04-03T11:18:27;8.40;98.00
6256;DHT22;3161;48.794;9.784;2023-04-03T11:23:41;8.50;98.40
6256;DHT22;3161;48.794;9.784;2023-04-03T11:26:13;8.50;98.70
6256;DHT22;3161;48.794;9.784;2023-04-03T11:28:39;8.40;97.90
6256;DHT22;3161;48.794;9.784;2023-04-03T11:31:37;8.40;98.10
6256;DHT22;3161;48.794;9.784;2023-04-03T11:34:34;8.20;98.30
6256;DHT22;3161;48.794;9.784;2023-04-03T11:37:11;8.10;98.40
6256;DHT22;3161;48.794;9.784;2023-04-03T11:39:36;8.00;99.30
6256;DHT22;3161;48.794;9.784;2023-04-03T11:42:38;8.10;99.30
6256;DHT22;3161;48.794;9.784;2023-04-03T11:48:00;8.10;99.10
6256;DHT22;3161;48.794;9.784;2023-04-03T11:50:38;8.20;99.30
6256;DHT22;3161;48.794;9.784;2023-04-03T11:58:25;8.60;98.60
6256;DHT22;3161;48.794;9.784;2023-04-03T12:00:59;8.60;98.70
6256;DHT22;3161;48.794;9.784;2023-04-03T12:03:56;8.70;99.60
6256;DHT22;3161;48.794;9.784;2023-04-03T12:11:14;8.80;97.60
6256;DHT22;3161;48.794;9.784;2023-04-03T12:19:00;8.70;97.80
6256;DHT22;3161;48.794;9.784;2023-04-03T12:29:34;8.40;97.30
6256;DHT22;3161;48.794;9.784;2023-04-03T12:46:18;8.90;95.70
6256;DHT22;3161;48.794;9.784;2023-04-03T12:48:48;9.10;94.60
6256;DHT22;3161;48.794;9.784;2023-04-03T12:51:19;9.20;94.70
6256;DHT22;3161;48.794;9.784;2023-04-03T12:53:48;9.40;94.80
6256;DHT22;3161;48.794;9.784;2023-04-03T12:56:31;9.50;93.40
6256;DHT22;3161;48.794;9.784;2023-04-03T12:59:20;9.70;93.10
6256;DHT22;3161;48.794;9.784;2023-04-03T13:01:57;9.80;93.30
6256;DHT22;3161;48.794;9.784;2023-04-03T13:04:27;9.90;92.20
6256;DHT22;3161;48.794;9.784;2023-04-03T13:06:55;9.80;91.80
6256;DHT22;3161;48.794;9.784;2023-04-03T13:09:26;9.90;91.90
6256;DHT22;3161;48.794;9.784;2023-04-03T13:12:12;10.10;91.50
6256;DHT22;3161;48.794;9.784;2023-04-03T13:14:36;10.40;90.80
6256;DHT22;3161;48.794;9.784;2023-04-03T13:17:14;10.90;89.80
6256;DHT22;3161;48.794;9.784;2023-04-03T13:19:44;11.40;87.30
6256;DHT22;3161;48.794;9.784;2023-04-03T13:22:34;11.60;89.40
6256;DHT22;3161;48.794;9.784;2023-04-03T13:25:06;11.80;85.80
6256;DHT22;3161;48.794;9.784;2023-04-03T13:27:34;11.70;86.50
6256;DHT22;3161;48.794;9.784;2023-04-03T13:30:04;11.40;86.00
6256;DHT22;3161;48.794;9.784;2023-04-03T13:32:32;11.10;84.60
6256;DHT22;3161;48.794;9.784;2023-04-03T13:35:00;10.80;85.70
6256;DHT22;3161;48.794;9.784;2023-04-03T13:37:32;10.60;87.30
6256;DHT22;3161;48.794;9.784;2023-04-03T13:40:08;10.40;86.10
6256;DHT22;3161;48.794;9.784;2023-04-03T13:42:33;10.20;87.70
6256;DHT22;3161;48.794;9.784;2023-04-03T13:45:30;10.10;88.30
6256;DHT22;3161;48.794;9.784;2023-04-03T13:48:09;10.10;89.80
6256;DHT22;3161;48.794;9.784;2023-04-03T13:51:04;10.00;87.30
6256;DHT22;3161;48.794;9.784;2023-04-03T13:53:40;9.90;88.40
6256;DHT22;3161;48.794;9.784;2023-04-03T13:56:18;9.90;88.20
6256;DHT22;3161;48.794;9.784;2023-04-03T13:59:33;9.90;86.90
6256;DHT22;3161;48.794;9.784;2023-04-03T14:04:27;12.90;82.90
6256;DHT22;3161;48.794;9.784;2023-04-03T14:06:56;17.60;71.60
6256;DHT22;3161;48.794;9.784;2023-04-03T14:09:25;20.70;53.50
6256;DHT22;3161;48.794;9.784;2023-04-03T14:11:59;21.70;46.70
6256;DHT22;3161;48.794;9.784;2023-04-03T14:14:34;21.90;44.70
6256;DHT22;3161;48.794;9.784;2023-04-03T14:17:00;21.10;41.00
6256;DHT22;3161;48.794;9.784;2023-04-03T14:19:34;19.60;42.00
6256;DHT22;3161;48.794;9.784;2023-04-03T14:22:11;18.40;45.10
6256;DHT22;3161;48.794;9.784;2023-04-03T14:24:35;17.10;44.60
6256;DHT22;3161;48.794;9.784;2023-04-03T14:27:05;16.00;47.10
6256;DHT22;3161;48.794;9.784;2023-04-03T14:29:32;14.90;46.10
6256;DHT22;3161;48.794;9.784;2023-04-03T14:32:00;14.00;48.50
6256;DHT22;3161;48.794;9.784;2023-04-03T14:34:27;13.10;51.20
6256;DHT22;3161;48.794;9.784;2023-04-03T14:36:55;12.40;52.30
6256;DHT22;3161;48.794;9.784;2023-04-03T14:39:22;12.00;52.80
6256;DHT22;3161;48.794;9.784;2023-04-03T14:41:50;11.50;53.70
6256;DHT22;3161;48.794;9.784;2023-04-03T14:44:17;11.20;54.20
6256;DHT22;3161;48.794;9.784;2023-04-03T14:46:45;11.00;54.80
6256;DHT22;3161;48.794;9.784;2023-04-03T14:49:15;11.00;56.20
6256;DHT22;3161;48.794;9.784;2023-04-03T14:51:43;11.40;56.00
6256;DHT22;3161;48.794;9.784;2023-04-03T14:54:17;12.70;52.60
6256;DHT22;3161;48.794;9.784;2023-04-03T14:56:46;14.00;50.10
6256;DHT22;3161;48.794;9.784;2023-04-03T14:59:14;14.10;48.60
6256;DHT22;3161;48.794;9.784;2023-04-03T15:01:43;13.70;49.50
6256;DHT22;3161;48.794;9.784;2023-04-03T15:04:19;13.10;49.90
6256;DHT22;3161;48.794;9.784;2023-04-03T15:06:48;12.40;52.60
6256;DHT22;3161;48.794;9.784;2023-04-03T15:09:21;11.70;53.40
6256;DHT22;3161;48.794;9.784;2023-04-03T15:11:50;11.20;56.20
6256;DHT22;3161;48.794;9.784;2023-04-03T15:14:18;10.80;57.10
6256;DHT22;3161;48.794;9.784;2023-04-03T15:16:46;10.40;57.60
6256;DHT22;3161;48.794;9.784;2023-04-03T15:19:14;10.20;58.00
6256;DHT22;3161;48.794;9.784;2023-04-03T15:21:41;10.00;60.60
6256;DHT22;3161;48.794;9.784;2023-04-03T15:24:09;9.90;61.30
6256;DHT22;3161;48.794;9.784;2023-04-03T15:26:37;9.90;61.20
6256;DHT22;3161;48.794;9.784;2023-04-03T15:29:05;9.90;61.50
6256;DHT22;3161;48.794;9.784;2023-04-03T15:31:33;9.90;60.20
6256;DHT22;3161;48.794;9.784;2023-04-03T15:34:01;9.80;59.40
6256;DHT22;3161;48.794;9.784;2023-04-03T15:36:29;9.80;59.20
6256;DHT22;3161;48.794;9.784;2023-04-03T15:38:57;9.70;60.20
6256;DHT22;3161;48.794;9.784;2023-04-03T15:41:24;9.60;60.20
6256;DHT22;3161;48.794;9.784;2023-04-03T15:43:52;9.60;62.90
6256;DHT22;3161;48.794;9.784;2023-04-03T15:46:20;9.60;60.20
6256;DHT22;3161;48.794;9.784;2023-04-03T15:48:47;9.50;61.10
6256;DHT22;3161;48.794;9.784;2023-04-03T15:51:16;9.30;60.50
6256;DHT22;3161;48.794;9.784;2023-04-03T15:53:43;9.10;60.50
6256;DHT22;3161;48.794;9.784;2023-04-03T15:56:11;9.00;60.40
6256;DHT22;3161;48.794;9.784;2023-04-03T15:58:38;8.90;62.60
6256;DHT22;3161;48.794;9.784;2023-04-03T16:01:08;8.80;63.20
6256;DHT22;3161;48.794;9.784;2023-04-03T16:03:36;8.80;62.70
6256;DHT22;3161;48.794;9.784;2023-04-03T16:06:05;8.70;63.70
6256;DHT22;3161;48.794;9.784;2023-04-03T16:08:33;8.60;62.80
6256;DHT22;3161;48.794;9.784;2023-04-03T16:11:02;8.60;62.90
6256;DHT22;3161;48.794;9.784;2023-04-03T16:13:30;8.70;62.60
6256;DHT22;3161;48.794;9.784;2023-04-03T16:16:00;8.70;62.40
6256;DHT22;3161;48.794;9.784;2023-04-03T16:18:28;8.80;61.30
6256;DHT22;3161;48.794;9.784;2023-04-03T16:20:56;8.70;62.00
6256;DHT22;3161;48.794;9.784;2023-04-03T16:23:24;8.60;64.90
6256;DHT22;3161;48.794;9.784;2023-04-03T16:25:52;8.60;64.50
6256;DHT22;3161;48.794;9.784;2023-04-03T16:28:20;8.50;64.30
6256;DHT22;3161;48.794;9.784;2023-04-03T16:30:48;8.40;64.70
6256;DHT22;3161;48.794;9.784;2023-04-03T16:33:16;8.30;65.40
6256;DHT22;3161;48.794;9.784;2023-04-03T16:35:44;8.30;66.70
6256;DHT22;3161;48.794;9.784;2023-04-03T16:38:12;8.30;67.10
6256;DHT22;3161;48.794;9.784;2023-04-03T16:40:39;8.20;66.80
6256;DHT22;3161;48.794;9.784;2023-04-03T16:43:07;8.20;68.40
6256;DHT22;3161;48.794;9.784;2023-04-03T16:45:38;8.30;68.30
6256;DHT22;3161;48.794;9.784;2023-04-03T16:48:05;8.20;66.60
6256;DHT22;3161;48.794;9.784;2023-04-03T16:50:33;8.10;66.90
6256;DHT22;3161;48.794;9.784;2023-04-03T16:53:01;8.00;66.70
6256;DHT22;3161;48.794;9.784;2023-04-03T16:55:29;7.90;67.00
6256;DHT22;3161;48.794;9.784;2023-04-03T16:57:57;7.80;67.50
6256;DHT22;3161;48.794;9.784;2023-04-03T17:00:24;7.80;68.30
6256;DHT22;3161;48.794;9.784;2023-04-03T17:02:52;7.70;69.10
6256;DHT22;3161;48.794;9.784;2023-04-03T17:05:19;7.80;69.70
6256;DHT22;3161;48.794;9.784;2023-04-03T17:07:47;7.70;71.00
6256;DHT22;3161;48.794;9.784;2023-04-03T17:10:15;7.70;68.80
6256;DHT22;3161;48.794;9.784;2023-04-03T17:12:42;7.70;70.20
6256;DHT22;3161;48.794;9.784;2023-04-03T17:15:10;7.60;70.10
6256;DHT22;3161;48.794;9.784;2023-04-03T17:17:38;7.60;71.10
6256;DHT22;3161;48.794;9.784;2023-04-03T17:20:06;7.60;71.30
6256;DHT22;3161;48.794;9.784;2023-04-03T17:22:34;7.60;71.20
6256;DHT22;3161;48.794;9.784;2023-04-03T17:25:03;7.60;69.90
6256;DHT22;3161;48.794;9.784;2023-04-03T17:27:31;7.50;70.20
6256;DHT22;3161;48.794;9.784;2023-04-03T17:29:58;7.50;70.70
6256;DHT22;3161;48.794;9.784;2023-04-03T17:32:26;7.50;71.50
6256;DHT22;3161;48.794;9.784;2023-04-03T17:34:53;7.50;71.00
6256;DHT22;3161;48.794;9.784;2023-04-03T17:37:21;7.40;71.80
6256;DHT22;3161;48.794;9.784;2023-04-03T17:39:48;7.40;73.00
6256;DHT22;3161;48.794;9.784;2023-04-03T17:42:16;7.40;73.70
6256;DHT22;3161;48.794;9.784;2023-04-03T17:44:44;7.30;73.10
6256;DHT22;3161;48.794;9.784;2023-04-03T17:47:11;7.30;74.10
6256;DHT22;3161;48.794;9.784;2023-04-03T17:49:39;7.30;74.10
6256;DHT22;3161;48.794;9.784;2023-04-03T17:52:06;7.30;73.90
6256;DHT22;3161;48.794;9.784;2023-04-03T17:54:34;7.30;74.20
6256;DHT22;3161;48.794;9.784;2023-04-03T17:57:01;7.30;74.40
6256;DHT22;3161;48.794;9.784;2023-04-03T17:59:30;7.20;74.40
6256;DHT22;3161;48.794;9.784;2023-04-03T18:01:57;7.20;74.70
6256;DHT22;3161;48.794;9.784;2023-04-03T18:04:25;7.20;74.20
6256;DHT22;3161;48.794;9.784;2023-04-03T18:06:54;7.20;74.80
6256;DHT22;3161;48.794;9.784;2023-04-03T18:09:29;7.20;75.30
6256;DHT22;3161;48.794;9.784;2023-04-03T18:11:53;7.20;75.80